sensor_id;sensor_type;location;lat;lon;timestamp;P1;durP1;ratioP1;P2;durP2;ratioP2
46290;SDS011;32023;44.444;26.006;2024-03-02T00:01:36;16.15;;;7.35;;
46290;SDS011;32023;44.444;26.006;2024-03-02T00:04:04;15.63;;;7.60;;
46290;SDS011;32023;44.444;26.006;2024-03-02T00:06:55;19.35;;;8.23;;
46290;SDS011;32023;44.444;26.006;2024-03-02T00:09:22;17.88;;;8.30;;
46290;SDS011;32023;44.444;26.006;2024-03-02T00:11:49;16.65;;;8.63;;
46290;SDS011;32023;44.444;26.006;2024-03-02T00:14:19;21.35;;;9.77;;
46290;SDS011;32023;44.444;26.006;2024-03-02T00:16:45;20.63;;;9.63;;
46290;SDS011;32023;44.444;26.006;2024-03-02T00:19:15;16.70;;;8.50;;
46290;SDS011;32023;44.444;26.006;2024-03-02T00:21:44;20.92;;;9.50;;
46290;SDS011;32023;44.444;26.006;2024-03-02T00:24:34;16.30;;;8.70;;
46290;SDS011;32023;44.444;26.006;2024-03-02T00:27:01;24.10;;;9.70;;
46290;SDS011;32023;44.444;26.006;2024-03-02T00:29:32;26.85;;;9.57;;
46290;SDS011;32023;44.444;26.006;2024-03-02T00:32:06;21.70;;;8.55;;
46290;SDS011;32023;44.444;26.006;2024-03-02T00:34:44;19.67;;;9.25;;
46290;SDS011;32023;44.444;26.006;2024-03-02T00:37:10;18.48;;;9.48;;
46290;SDS011;32023;44.444;26.006;2024-03-02T00:42:16;16.73;;;9.13;;
46290;SDS011;32023;44.444;26.006;2024-03-02T00:44:43;17.00;;;9.65;;
46290;SDS011;32023;44.444;26.006;2024-03-02T00:47:12;17.67;;;8.95;;
46290;SDS011;32023;44.444;26.006;2024-03-02T00:49:43;22.40;;;9.77;;
46290;SDS011;32023;44.444;26.006;2024-03-02T00:52:14;15.63;;;9.55;;
46290;SDS011;32023;44.444;26.006;2024-03-02T00:54:46;16.80;;;9.23;;
46290;SDS011;32023;44.444;26.006;2024-03-02T00:57:19;17.58;;;9.80;;
46290;SDS011;32023;44.444;26.006;2024-03-02T00:59:55;20.35;;;9.55;;
46290;SDS011;32023;44.444;26.006;2024-03-02T01:02:35;21.20;;;10.23;;
46290;SDS011;32023;44.444;26.006;2024-03-02T01:05:13;21.98;;;10.18;;
46290;SDS011;32023;44.444;26.006;2024-03-02T01:12:53;17.80;;;9.90;;
46290;SDS011;32023;44.444;26.006;2024-03-02T01:15:20;18.88;;;11.68;;
46290;SDS011;32023;44.444;26.006;2024-03-02T01:17:52;20.88;;;10.43;;
46290;SDS011;32023;44.444;26.006;2024-03-02T01:20:19;25.95;;;10.50;;
46290;SDS011;32023;44.444;26.006;2024-03-02T01:22:47;20.10;;;10.30;;
46290;SDS011;32023;44.444;26.006;2024-03-02T01:25:16;17.77;;;9.65;;
46290;SDS011;32023;44.444;26.006;2024-03-02T01:27:46;24.73;;;10.95;;
46290;SDS011;32023;44.444;26.006;2024-03-02T01:30:13;22.10;;;10.88;;
46290;SDS011;32023;44.444;26.006;2024-03-02T01:32:41;20.85;;;10.13;;
46290;SDS011;32023;44.444;26.006;2024-03-02T01:37:45;20.65;;;10.35;;
46290;SDS011;32023;44.444;26.006;2024-03-02T01:40:16;21.02;;;10.10;;
46290;SDS011;32023;44.444;26.006;2024-03-02T01:42:56;18.10;;;11.05;;
46290;SDS011;32023;44.444;26.006;2024-03-02T01:45:25;22.65;;;10.77;;
46290;SDS011;32023;44.444;26.006;2024-03-02T01:47:55;18.05;;;10.32;;
46290;SDS011;32023;44.444;26.006;2024-03-02T01:50:33;19.50;;;10.65;;
46290;SDS011;32023;44.444;26.006;2024-03-02T01:53:16;21.13;;;10.95;;
46290;SDS011;32023;44.444;26.006;2024-03-02T01:55:48;19.17;;;10.57;;
46290;SDS011;32023;44.444;26.006;2024-03-02T01:58:17;27.88;;;11.55;;
46290;SDS011;32023;44.444;26.006;2024-03-02T02:00:44;26.85;;;10.43;;
46290;SDS011;32023;44.444;26.006;2024-03-02T02:03:23;19.67;;;10.85;;
46290;SDS011;32023;44.444;26.006;2024-03-02T02:05:50;22.55;;;11.20;;
46290;SDS011;32023;44.444;26.006;2024-03-02T02:08:18;16.90;;;10.02;;
46290;SDS011;32023;44.444;26.006;2024-03-02T02:10:46;17.15;;;10.88;;
46290;SDS011;32023;44.444;26.006;2024-03-02T02:16:20;23.25;;;11.27;;
46290;SDS011;32023;44.444;26.006;2024-03-02T02:18:49;23.52;;;10.90;;
46290;SDS011;32023;44.444;26.006;2024-03-02T02:21:16;21.58;;;10.55;;
46290;SDS011;32023;44.444;26.006;2024-03-02T02:29:47;25.60;;;12.50;;
46290;SDS011;32023;44.444;26.006;2024-03-02T02:32:16;22.52;;;11.40;;
46290;SDS011;32023;44.444;26.006;2024-03-02T02:34:45;26.90;;;12.18;;
46290;SDS011;32023;44.444;26.006;2024-03-02T02:37:12;26.92;;;12.70;;
46290;SDS011;32023;44.444;26.006;2024-03-02T02:39:38;25.25;;;13.20;;
46290;SDS011;32023;44.444;26.006;2024-03-02T02:44:51;20.90;;;13.05;;
46290;SDS011;32023;44.444;26.006;2024-03-02T02:47:17;25.08;;;12.85;;
46290;SDS011;32023;44.444;26.006;2024-03-02T02:49:52;23.75;;;12.98;;
46290;SDS011;32023;44.444;26.006;2024-03-02T02:52:18;34.42;;;13.05;;
46290;SDS011;32023;44.444;26.006;2024-03-02T03:01:32;20.70;;;12.20;;
46290;SDS011;32023;44.444;26.006;2024-03-02T03:07:21;29.60;;;13.55;;
46290;SDS011;32023;44.444;26.006;2024-03-02T03:13:11;30.35;;;13.60;;
46290;SDS011;32023;44.444;26.006;2024-03-02T03:15:40;28.65;;;11.98;;
46290;SDS011;32023;44.444;26.006;2024-03-02T03:18:15;23.70;;;13.23;;
46290;SDS011;32023;44.444;26.006;2024-03-02T03:23:32;27.13;;;12.48;;
46290;SDS011;32023;44.444;26.006;2024-03-02T03:25:58;26.90;;;13.45;;
46290;SDS011;32023;44.444;26.006;2024-03-02T03:28:26;25.30;;;11.90;;
46290;SDS011;32023;44.444;26.006;2024-03-02T03:30:53;26.15;;;13.77;;
46290;SDS011;32023;44.444;26.006;2024-03-02T03:33:19;25.80;;;13.18;;
46290;SDS011;32023;44.444;26.006;2024-03-02T03:35:47;21.63;;;12.82;;
46290;SDS011;32023;44.444;26.006;2024-03-02T03:38:13;28.10;;;12.93;;
46290;SDS011;32023;44.444;26.006;2024-03-02T03:40:40;25.52;;;12.05;;
46290;SDS011;32023;44.444;26.006;2024-03-02T03:43:09;26.60;;;12.27;;
46290;SDS011;32023;44.444;26.006;2024-03-02T03:45:37;26.13;;;12.15;;
46290;SDS011;32023;44.444;26.006;2024-03-02T03:48:06;26.48;;;13.00;;
46290;SDS011;32023;44.444;26.006;2024-03-02T03:50:34;29.88;;;13.00;;
46290;SDS011;32023;44.444;26.006;2024-03-02T03:53:03;23.33;;;12.05;;
46290;SDS011;32023;44.444;26.006;2024-03-02T03:55:32;19.45;;;11.02;;
46290;SDS011;32023;44.444;26.006;2024-03-02T03:58:01;23.75;;;12.57;;
46290;SDS011;32023;44.444;26.006;2024-03-02T04:00:28;21.80;;;12.35;;
46290;SDS011;32023;44.444;26.006;2024-03-02T04:02:59;22.17;;;11.85;;
46290;SDS011;32023;44.444;26.006;2024-03-02T04:05:31;24.45;;;11.93;;
46290;SDS011;32023;44.444;26.006;2024-03-02T04:07:58;25.38;;;13.05;;
46290;SDS011;32023;44.444;26.006;2024-03-02T04:12:56;21.98;;;11.50;;
46290;SDS011;32023;44.444;26.006;2024-03-02T04:15:23;23.63;;;12.20;;
46290;SDS011;32023;44.444;26.006;2024-03-02T04:17:55;19.40;;;11.40;;
46290;SDS011;32023;44.444;26.006;2024-03-02T04:20:22;22.05;;;11.73;;
46290;SDS011;32023;44.444;26.006;2024-03-02T04:22:50;22.75;;;11.10;;
46290;SDS011;32023;44.444;26.006;2024-03-02T04:25:16;23.05;;;11.18;;
46290;SDS011;32023;44.444;26.006;2024-03-02T04:27:46;16.85;;;10.13;;
46290;SDS011;32023;44.444;26.006;2024-03-02T04:30:15;20.83;;;11.27;;
46290;SDS011;32023;44.444;26.006;2024-03-02T04:32:41;20.58;;;11.30;;
46290;SDS011;32023;44.444;26.006;2024-03-02T04:35:11;19.30;;;10.00;;
46290;SDS011;32023;44.444;26.006;2024-03-02T04:37:40;24.40;;;11.32;;
46290;SDS011;32023;44.444;26.006;2024-03-02T04:40:06;25.50;;;11.02;;
46290;SDS011;32023;44.444;26.006;2024-03-02T04:42:34;20.40;;;10.18;;
46290;SDS011;32023;44.444;26.006;2024-03-02T04:45:00;18.50;;;10.18;;
46290;SDS011;32023;44.444;26.006;2024-03-02T04:47:27;17.67;;;10.25;;
46290;SDS011;32023;44.444;26.006;2024-03-02T04:49:54;21.40;;;10.95;;
46290;SDS011;32023;44.444;26.006;2024-03-02T04:52:21;22.45;;;11.48;;
46290;SDS011;32023;44.444;26.006;2024-03-02T04:54:48;21.58;;;11.20;;
46290;SDS011;32023;44.444;26.006;2024-03-02T04:57:43;25.20;;;11.45;;
46290;SDS011;32023;44.444;26.006;2024-03-02T05:00:11;19.92;;;11.07;;
46290;SDS011;32023;44.444;26.006;2024-03-02T05:02:38;22.08;;;11.18;;
46290;SDS011;32023;44.444;26.006;2024-03-02T05:05:05;27.48;;;12.68;;
46290;SDS011;32023;44.444;26.006;2024-03-02T05:07:31;23.75;;;12.02;;
46290;SDS011;32023;44.444;26.006;2024-03-02T05:10:01;22.77;;;12.48;;
46290;SDS011;32023;44.444;26.006;2024-03-02T05:12:27;19.50;;;11.43;;
46290;SDS011;32023;44.444;26.006;2024-03-02T05:15:20;23.30;;;12.52;;
46290;SDS011;32023;44.444;26.006;2024-03-02T05:17:47;19.33;;;12.32;;
46290;SDS011;32023;44.444;26.006;2024-03-02T05:20:13;33.63;;;12.27;;
46290;SDS011;32023;44.444;26.006;2024-03-02T05:22:43;22.77;;;11.38;;
46290;SDS011;32023;44.444;26.006;2024-03-02T05:27:39;31.88;;;13.30;;
46290;SDS011;32023;44.444;26.006;2024-03-02T05:30:13;23.65;;;11.13;;
46290;SDS011;32023;44.444;26.006;2024-03-02T05:32:39;18.98;;;11.02;;
46290;SDS011;32023;44.444;26.006;2024-03-02T05:35:08;21.27;;;11.88;;
46290;SDS011;32023;44.444;26.006;2024-03-02T05:37:40;20.80;;;11.65;;
46290;SDS011;32023;44.444;26.006;2024-03-02T05:40:08;28.35;;;12.32;;
46290;SDS011;32023;44.444;26.006;2024-03-02T05:42:36;29.02;;;11.63;;
46290;SDS011;32023;44.444;26.006;2024-03-02T05:45:03;23.00;;;11.05;;
46290;SDS011;32023;44.444;26.006;2024-03-02T05:47:30;23.90;;;11.15;;
46290;SDS011;32023;44.444;26.006;2024-03-02T05:49:58;19.73;;;10.85;;
46290;SDS011;32023;44.444;26.006;2024-03-02T05:52:24;28.13;;;10.95;;
46290;SDS011;32023;44.444;26.006;2024-03-02T05:54:51;19.88;;;9.52;;
46290;SDS011;32023;44.444;26.006;2024-03-02T06:00:27;24.17;;;11.48;;
46290;SDS011;32023;44.444;26.006;2024-03-02T06:02:55;19.73;;;10.48;;
46290;SDS011;32023;44.444;26.006;2024-03-02T06:05:28;23.70;;;12.00;;
46290;SDS011;32023;44.444;26.006;2024-03-02T06:07:58;20.05;;;11.80;;
46290;SDS011;32023;44.444;26.006;2024-03-02T06:10:24;23.15;;;11.43;;
46290;SDS011;32023;44.444;26.006;2024-03-02T06:12:53;22.33;;;9.95;;
46290;SDS011;32023;44.444;26.006;2024-03-02T06:15:24;23.23;;;10.85;;
46290;SDS011;32023;44.444;26.006;2024-03-02T06:17:53;22.90;;;11.70;;
46290;SDS011;32023;44.444;26.006;2024-03-02T06:20:19;21.73;;;11.57;;
46290;SDS011;32023;44.444;26.006;2024-03-02T06:22:46;22.73;;;11.85;;
46290;SDS011;32023;44.444;26.006;2024-03-02T06:25:15;20.48;;;11.95;;
46290;SDS011;32023;44.444;26.006;2024-03-02T06:27:41;24.60;;;10.98;;
46290;SDS011;32023;44.444;26.006;2024-03-02T06:30:08;19.20;;;10.60;;
46290;SDS011;32023;44.444;26.006;2024-03-02T06:32:35;23.35;;;11.30;;
46290;SDS011;32023;44.444;26.006;2024-03-02T06:35:05;19.52;;;11.85;;
46290;SDS011;32023;44.444;26.006;2024-03-02T06:40:12;23.00;;;10.95;;
46290;SDS011;32023;44.444;26.006;2024-03-02T06:42:39;19.67;;;10.30;;
46290;SDS011;32023;44.444;26.006;2024-03-02T06:45:05;21.00;;;12.25;;
46290;SDS011;32023;44.444;26.006;2024-03-02T06:47:35;24.33;;;12.13;;
46290;SDS011;32023;44.444;26.006;2024-03-02T06:50:04;22.50;;;9.75;;
46290;SDS011;32023;44.444;26.006;2024-03-02T06:55:09;20.63;;;10.32;;
46290;SDS011;32023;44.444;26.006;2024-03-02T06:57:37;17.80;;;10.38;;
46290;SDS011;32023;44.444;26.006;2024-03-02T07:00:04;15.32;;;9.68;;
46290;SDS011;32023;44.444;26.006;2024-03-02T07:02:36;24.65;;;11.45;;
46290;SDS011;32023;44.444;26.006;2024-03-02T07:05:03;21.52;;;11.27;;
46290;SDS011;32023;44.444;26.006;2024-03-02T07:07:33;19.73;;;10.00;;
46290;SDS011;32023;44.444;26.006;2024-03-02T07:13:49;17.08;;;10.15;;
46290;SDS011;32023;44.444;26.006;2024-03-02T07:16:17;18.95;;;11.05;;
46290;SDS011;32023;44.444;26.006;2024-03-02T07:24:45;20.13;;;10.38;;
46290;SDS011;32023;44.444;26.006;2024-03-02T07:27:16;19.85;;;9.48;;
46290;SDS011;32023;44.444;26.006;2024-03-02T07:29:43;23.55;;;10.73;;
46290;SDS011;32023;44.444;26.006;2024-03-02T07:35:02;21.88;;;10.23;;
46290;SDS011;32023;44.444;26.006;2024-03-02T07:37:29;22.38;;;11.55;;
46290;SDS011;32023;44.444;26.006;2024-03-02T07:39:58;18.50;;;10.00;;
46290;SDS011;32023;44.444;26.006;2024-03-02T07:42:25;17.55;;;8.25;;
46290;SDS011;32023;44.444;26.006;2024-03-02T07:44:51;21.20;;;10.63;;
46290;SDS011;32023;44.444;26.006;2024-03-02T07:47:18;18.67;;;10.48;;
46290;SDS011;32023;44.444;26.006;2024-03-02T07:49:46;23.23;;;9.80;;
46290;SDS011;32023;44.444;26.006;2024-03-02T07:52:12;19.92;;;10.25;;
46290;SDS011;32023;44.444;26.006;2024-03-02T07:58:00;19.20;;;10.30;;
46290;SDS011;32023;44.444;26.006;2024-03-02T08:07:12;16.55;;;10.02;;
46290;SDS011;32023;44.444;26.006;2024-03-02T08:09:54;16.25;;;10.00;;
46290;SDS011;32023;44.444;26.006;2024-03-02T08:12:44;15.40;;;8.85;;
46290;SDS011;32023;44.444;26.006;2024-03-02T08:15:12;16.65;;;10.32;;
46290;SDS011;32023;44.444;26.006;2024-03-02T08:17:42;19.48;;;10.45;;
46290;SDS011;32023;44.444;26.006;2024-03-02T08:20:16;25.33;;;12.02;;
46290;SDS011;32023;44.444;26.006;2024-03-02T08:22:50;23.08;;;11.63;;
46290;SDS011;32023;44.444;26.006;2024-03-02T08:25:24;20.90;;;11.45;;
46290;SDS011;32023;44.444;26.006;2024-03-02T08:27:59;21.83;;;12.32;;
46290;SDS011;32023;44.444;26.006;2024-03-02T08:40:37;17.73;;;11.55;;
46290;SDS011;32023;44.444;26.006;2024-03-02T08:50:22;27.08;;;12.32;;
46290;SDS011;32023;44.444;26.006;2024-03-02T08:56:12;26.10;;;11.57;;
46290;SDS011;32023;44.444;26.006;2024-03-02T08:58:56;31.43;;;10.73;;
46290;SDS011;32023;44.444;26.006;2024-03-02T09:07:58;23.02;;;9.93;;
46290;SDS011;32023;44.444;26.006;2024-03-02T09:16:18;20.13;;;9.55;;
46290;SDS011;32023;44.444;26.006;2024-03-02T09:22:24;17.20;;;9.07;;
46290;SDS011;32023;44.444;26.006;2024-03-02T09:25:28;24.60;;;9.10;;
46290;SDS011;32023;44.444;26.006;2024-03-02T09:28:01;17.42;;;10.32;;
46290;SDS011;32023;44.444;26.006;2024-03-02T09:30:53;19.15;;;10.30;;
46290;SDS011;32023;44.444;26.006;2024-03-02T09:39:31;16.88;;;9.13;;
46290;SDS011;32023;44.444;26.006;2024-03-02T09:42:38;21.67;;;10.23;;
46290;SDS011;32023;44.444;26.006;2024-03-02T09:45:30;18.65;;;9.52;;
46290;SDS011;32023;44.444;26.006;2024-03-02T09:48:29;19.38;;;9.32;;
46290;SDS011;32023;44.444;26.006;2024-03-02T09:51:42;19.50;;;9.35;;
46290;SDS011;32023;44.444;26.006;2024-03-02T10:01:08;20.05;;;8.55;;
46290;SDS011;32023;44.444;26.006;2024-03-02T10:04:23;25.60;;;11.40;;
46290;SDS011;32023;44.444;26.006;2024-03-02T10:13:42;22.52;;;9.70;;
46290;SDS011;32023;44.444;26.006;2024-03-02T10:29:25;22.85;;;9.00;;
46290;SDS011;32023;44.444;26.006;2024-03-02T10:35:49;17.60;;;8.45;;
46290;SDS011;32023;44.444;26.006;2024-03-02T10:38:21;16.83;;;8.18;;
46290;SDS011;32023;44.444;26.006;2024-03-02T10:40:52;16.35;;;8.10;;
46290;SDS011;32023;44.444;26.006;2024-03-02T10:43:32;15.55;;;8.30;;
46290;SDS011;32023;44.444;26.006;2024-03-02T10:46:11;17.10;;;8.52;;
46290;SDS011;32023;44.444;26.006;2024-03-02T10:48:42;15.48;;;8.88;;
46290;SDS011;32023;44.444;26.006;2024-03-02T10:51:14;11.75;;;7.68;;
46290;SDS011;32023;44.444;26.006;2024-03-02T10:53:48;21.33;;;9.55;;
46290;SDS011;32023;44.444;26.006;2024-03-02T11:03:09;20.10;;;8.80;;
46290;SDS011;32023;44.444;26.006;2024-03-02T11:05:48;20.20;;;9.43;;
46290;SDS011;32023;44.444;26.006;2024-03-02T11:08:18;19.08;;;10.18;;
46290;SDS011;32023;44.444;26.006;2024-03-02T11:11:07;23.55;;;9.00;;
46290;SDS011;32023;44.444;26.006;2024-03-02T11:13:58;17.13;;;8.73;;
46290;SDS011;32023;44.444;26.006;2024-03-02T11:16:56;19.02;;;9.25;;
46290;SDS011;32023;44.444;26.006;2024-03-02T11:19:26;20.88;;;9.68;;
46290;SDS011;32023;44.444;26.006;2024-03-02T11:22:04;17.70;;;7.95;;
46290;SDS011;32023;44.444;26.006;2024-03-02T11:25:24;13.52;;;8.45;;
46290;SDS011;32023;44.444;26.006;2024-03-02T11:30:48;17.05;;;8.40;;
46290;SDS011;32023;44.444;26.006;2024-03-02T11:33:45;16.63;;;8.65;;
46290;SDS011;32023;44.444;26.006;2024-03-02T11:36:19;13.25;;;7.70;;
46290;SDS011;32023;44.444;26.006;2024-03-02T11:38:48;18.60;;;8.88;;
46290;SDS011;32023;44.444;26.006;2024-03-02T11:41:23;16.92;;;9.15;;
46290;SDS011;32023;44.444;26.006;2024-03-02T11:44:04;12.90;;;8.32;;
46290;SDS011;32023;44.444;26.006;2024-03-02T11:47:01;14.45;;;7.78;;
46290;SDS011;32023;44.444;26.006;2024-03-02T11:49:43;13.63;;;7.45;;
46290;SDS011;32023;44.444;26.006;2024-03-02T11:52:13;14.43;;;7.60;;
46290;SDS011;32023;44.444;26.006;2024-03-02T12:01:29;19.20;;;9.18;;
46290;SDS011;32023;44.444;26.006;2024-03-02T12:04:38;17.00;;;8.80;;
46290;SDS011;32023;44.444;26.006;2024-03-02T12:08:13;17.02;;;9.25;;
46290;SDS011;32023;44.444;26.006;2024-03-02T12:11:09;15.85;;;9.50;;
46290;SDS011;32023;44.444;26.006;2024-03-02T12:14:01;17.40;;;8.65;;
46290;SDS011;32023;44.444;26.006;2024-03-02T12:16:51;18.30;;;9.35;;
46290;SDS011;32023;44.444;26.006;2024-03-02T12:25:22;17.33;;;8.90;;
46290;SDS011;32023;44.444;26.006;2024-03-02T12:28:17;16.30;;;8.63;;
46290;SDS011;32023;44.444;26.006;2024-03-02T12:31:07;16.95;;;8.90;;
46290;SDS011;32023;44.444;26.006;2024-03-02T12:37:08;16.77;;;7.93;;
46290;SDS011;32023;44.444;26.006;2024-03-02T12:40:10;17.83;;;9.20;;
46290;SDS011;32023;44.444;26.006;2024-03-02T12:42:50;15.18;;;8.27;;
46290;SDS011;32023;44.444;26.006;2024-03-02T12:45:31;14.20;;;7.78;;
46290;SDS011;32023;44.444;26.006;2024-03-02T12:48:04;15.45;;;8.00;;
46290;SDS011;32023;44.444;26.006;2024-03-02T12:50:54;29.23;;;9.43;;
46290;SDS011;32023;44.444;26.006;2024-03-02T12:53:23;17.33;;;8.63;;
46290;SDS011;32023;44.444;26.006;2024-03-02T12:55:53;16.45;;;8.68;;
46290;SDS011;32023;44.444;26.006;2024-03-02T12:58:22;16.88;;;9.70;;
46290;SDS011;32023;44.444;26.006;2024-03-02T13:01:22;15.60;;;8.25;;
46290;SDS011;32023;44.444;26.006;2024-03-02T13:03:54;14.15;;;8.50;;
46290;SDS011;32023;44.444;26.006;2024-03-02T13:09:45;17.00;;;7.90;;
46290;SDS011;32023;44.444;26.006;2024-03-02T13:15:48;20.23;;;8.30;;
46290;SDS011;32023;44.444;26.006;2024-03-02T13:18:34;15.85;;;8.15;;
46290;SDS011;32023;44.444;26.006;2024-03-02T13:21:12;18.05;;;7.50;;
46290;SDS011;32023;44.444;26.006;2024-03-02T13:23:41;13.77;;;7.78;;
46290;SDS011;32023;44.444;26.006;2024-03-02T13:26:31;16.10;;;8.32;;
46290;SDS011;32023;44.444;26.006;2024-03-02T13:29:05;16.92;;;8.48;;
46290;SDS011;32023;44.444;26.006;2024-03-02T13:31:55;18.95;;;9.65;;
46290;SDS011;32023;44.444;26.006;2024-03-02T13:34:23;25.48;;;9.02;;
46290;SDS011;32023;44.444;26.006;2024-03-02T13:36:52;14.93;;;8.18;;
46290;SDS011;32023;44.444;26.006;2024-03-02T13:39:29;15.98;;;7.45;;
46290;SDS011;32023;44.444;26.006;2024-03-02T13:42:13;15.68;;;8.02;;
46290;SDS011;32023;44.444;26.006;2024-03-02T13:44:56;17.27;;;8.13;;
46290;SDS011;32023;44.444;26.006;2024-03-02T13:47:26;16.33;;;7.45;;
46290;SDS011;32023;44.444;26.006;2024-03-02T13:49:55;13.90;;;7.28;;
46290;SDS011;32023;44.444;26.006;2024-03-02T13:55:39;12.18;;;7.93;;
46290;SDS011;32023;44.444;26.006;2024-03-02T13:58:33;14.65;;;9.10;;
46290;SDS011;32023;44.444;26.006;2024-03-02T14:01:28;15.07;;;7.95;;
46290;SDS011;32023;44.444;26.006;2024-03-02T14:03:58;14.15;;;7.65;;
46290;SDS011;32023;44.444;26.006;2024-03-02T14:06:27;15.10;;;8.77;;
46290;SDS011;32023;44.444;26.006;2024-03-02T14:09:15;15.38;;;8.95;;
46290;SDS011;32023;44.444;26.006;2024-03-02T14:11:41;17.25;;;8.13;;
46290;SDS011;32023;44.444;26.006;2024-03-02T14:14:22;14.85;;;8.18;;
46290;SDS011;32023;44.444;26.006;2024-03-02T14:16:52;14.77;;;8.43;;
46290;SDS011;32023;44.444;26.006;2024-03-02T14:19:23;17.27;;;8.32;;
46290;SDS011;32023;44.444;26.006;2024-03-02T14:28:17;14.63;;;8.30;;
46290;SDS011;32023;44.444;26.006;2024-03-02T14:30:47;14.43;;;8.15;;
46290;SDS011;32023;44.444;26.006;2024-03-02T14:33:27;18.52;;;8.18;;
46290;SDS011;32023;44.444;26.006;2024-03-02T14:36:06;15.27;;;8.07;;
46290;SDS011;32023;44.444;26.006;2024-03-02T14:38:58;13.57;;;7.55;;
46290;SDS011;32023;44.444;26.006;2024-03-02T14:41:45;17.58;;;7.72;;
46290;SDS011;32023;44.444;26.006;2024-03-02T14:44:59;13.68;;;7.53;;
46290;SDS011;32023;44.444;26.006;2024-03-02T14:47:59;18.17;;;8.25;;
46290;SDS011;32023;44.444;26.006;2024-03-02T14:50:39;15.32;;;6.72;;
46290;SDS011;32023;44.444;26.006;2024-03-02T14:53:17;18.63;;;7.28;;
46290;SDS011;32023;44.444;26.006;2024-03-02T14:55:55;13.02;;;7.40;;
46290;SDS011;32023;44.444;26.006;2024-03-02T14:58:30;23.27;;;8.68;;
46290;SDS011;32023;44.444;26.006;2024-03-02T15:01:34;18.95;;;8.57;;
46290;SDS011;32023;44.444;26.006;2024-03-02T15:17:46;15.57;;;8.23;;
46290;SDS011;32023;44.444;26.006;2024-03-02T15:20:12;14.98;;;7.55;;
46290;SDS011;32023;44.444;26.006;2024-03-02T15:22:39;18.77;;;8.18;;
46290;SDS011;32023;44.444;26.006;2024-03-02T15:25:06;17.42;;;8.95;;
46290;SDS011;32023;44.444;26.006;2024-03-02T15:27:48;17.02;;;8.65;;
46290;SDS011;32023;44.444;26.006;2024-03-02T15:33:19;18.27;;;7.97;;
46290;SDS011;32023;44.444;26.006;2024-03-02T15:36:01;19.73;;;7.95;;
46290;SDS011;32023;44.444;26.006;2024-03-02T15:38:28;19.00;;;8.02;;
46290;SDS011;32023;44.444;26.006;2024-03-02T15:40:54;20.17;;;8.93;;
46290;SDS011;32023;44.444;26.006;2024-03-02T15:43:32;20.25;;;8.50;;
46290;SDS011;32023;44.444;26.006;2024-03-02T15:46:06;18.88;;;9.30;;
46290;SDS011;32023;44.444;26.006;2024-03-02T15:51:28;21.77;;;10.52;;
46290;SDS011;32023;44.444;26.006;2024-03-02T15:54:25;23.65;;;10.30;;
46290;SDS011;32023;44.444;26.006;2024-03-02T15:57:32;21.58;;;11.88;;
46290;SDS011;32023;44.444;26.006;2024-03-02T16:00:31;20.95;;;9.38;;
46290;SDS011;32023;44.444;26.006;2024-03-02T16:03:13;24.88;;;11.55;;
46290;SDS011;32023;44.444;26.006;2024-03-02T16:05:42;21.33;;;10.60;;
46290;SDS011;32023;44.444;26.006;2024-03-02T16:08:37;21.70;;;10.85;;
46290;SDS011;32023;44.444;26.006;2024-03-02T16:11:38;24.58;;;11.43;;
46290;SDS011;32023;44.444;26.006;2024-03-02T16:14:07;19.90;;;11.23;;
46290;SDS011;32023;44.444;26.006;2024-03-02T16:16:50;23.60;;;11.88;;
46290;SDS011;32023;44.444;26.006;2024-03-02T16:19:23;22.25;;;11.60;;
46290;SDS011;32023;44.444;26.006;2024-03-02T16:21:55;20.45;;;11.82;;
46290;SDS011;32023;44.444;26.006;2024-03-02T16:24:38;29.75;;;13.68;;
46290;SDS011;32023;44.444;26.006;2024-03-02T16:27:28;27.42;;;13.25;;
46290;SDS011;32023;44.444;26.006;2024-03-02T16:29:55;21.15;;;11.48;;
46290;SDS011;32023;44.444;26.006;2024-03-02T16:32:56;21.17;;;11.80;;
46290;SDS011;32023;44.444;26.006;2024-03-02T16:35:35;25.25;;;12.55;;
46290;SDS011;32023;44.444;26.006;2024-03-02T16:38:14;26.80;;;13.13;;
46290;SDS011;32023;44.444;26.006;2024-03-02T16:40:50;26.30;;;12.88;;
46290;SDS011;32023;44.444;26.006;2024-03-02T16:43:23;25.55;;;12.57;;
46290;SDS011;32023;44.444;26.006;2024-03-02T16:45:52;31.58;;;13.32;;
46290;SDS011;32023;44.444;26.006;2024-03-02T16:48:53;31.42;;;14.18;;
46290;SDS011;32023;44.444;26.006;2024-03-02T16:51:22;31.95;;;14.90;;
46290;SDS011;32023;44.444;26.006;2024-03-02T16:56:45;32.05;;;14.68;;
46290;SDS011;32023;44.444;26.006;2024-03-02T16:59:32;26.48;;;14.55;;
46290;SDS011;32023;44.444;26.006;2024-03-02T17:05:12;25.50;;;13.70;;
46290;SDS011;32023;44.444;26.006;2024-03-02T17:07:41;25.00;;;13.70;;
46290;SDS011;32023;44.444;26.006;2024-03-02T17:10:13;33.85;;;14.80;;
46290;SDS011;32023;44.444;26.006;2024-03-02T17:13:00;25.90;;;14.32;;
46290;SDS011;32023;44.444;26.006;2024-03-02T17:15:27;25.77;;;14.10;;
46290;SDS011;32023;44.444;26.006;2024-03-02T17:24:11;29.85;;;14.90;;
46290;SDS011;32023;44.444;26.006;2024-03-02T17:29:14;22.83;;;13.45;;
46290;SDS011;32023;44.444;26.006;2024-03-02T17:31:51;23.98;;;13.80;;
46290;SDS011;32023;44.444;26.006;2024-03-02T17:34:21;22.25;;;13.35;;
46290;SDS011;32023;44.444;26.006;2024-03-02T17:40:01;29.77;;;14.05;;
46290;SDS011;32023;44.444;26.006;2024-03-02T17:49:20;25.70;;;14.05;;
46290;SDS011;32023;44.444;26.006;2024-03-02T17:52:04;29.30;;;13.90;;
46290;SDS011;32023;44.444;26.006;2024-03-02T17:55:05;23.15;;;13.57;;
46290;SDS011;32023;44.444;26.006;2024-03-02T17:57:58;25.98;;;14.23;;
46290;SDS011;32023;44.444;26.006;2024-03-02T18:00:29;26.67;;;13.15;;
46290;SDS011;32023;44.444;26.006;2024-03-02T18:03:01;24.42;;;13.98;;
46290;SDS011;32023;44.444;26.006;2024-03-02T18:05:40;26.67;;;14.13;;
46290;SDS011;32023;44.444;26.006;2024-03-02T18:08:14;34.08;;;14.75;;
46290;SDS011;32023;44.444;26.006;2024-03-02T18:10:45;22.13;;;13.02;;
46290;SDS011;32023;44.444;26.006;2024-03-02T18:13:15;30.35;;;14.35;;
46290;SDS011;32023;44.444;26.006;2024-03-02T18:15:47;28.25;;;13.43;;
46290;SDS011;32023;44.444;26.006;2024-03-02T18:18:16;24.73;;;13.95;;
46290;SDS011;32023;44.444;26.006;2024-03-02T18:20:50;25.10;;;13.13;;
46290;SDS011;32023;44.444;26.006;2024-03-02T18:23:25;29.38;;;13.85;;
46290;SDS011;32023;44.444;26.006;2024-03-02T18:25:57;28.20;;;13.70;;
46290;SDS011;32023;44.444;26.006;2024-03-02T18:28:31;25.88;;;12.30;;
46290;SDS011;32023;44.444;26.006;2024-03-02T18:31:01;26.42;;;12.75;;
46290;SDS011;32023;44.444;26.006;2024-03-02T18:33:44;22.80;;;12.35;;
46290;SDS011;32023;44.444;26.006;2024-03-02T18:36:11;22.98;;;13.13;;
46290;SDS011;32023;44.444;26.006;2024-03-02T18:38:40;24.55;;;12.82;;
46290;SDS011;32023;44.444;26.006;2024-03-02T18:41:09;27.95;;;14.25;;
46290;SDS011;32023;44.444;26.006;2024-03-02T18:43:46;25.17;;;13.93;;
46290;SDS011;32023;44.444;26.006;2024-03-02T18:46:20;30.63;;;15.02;;
46290;SDS011;32023;44.444;26.006;2024-03-02T18:49:08;31.05;;;14.50;;
46290;SDS011;32023;44.444;26.006;2024-03-02T18:51:47;29.60;;;15.73;;